Pagrindinis puslapis
METAR-TAF:

METAR-TAF

Oro uostai :

Zygenas, Vokietija

platuma: 50-42-28N, ilguma: 008-04-59E, Aukštis: 602 m

Dabartinis oras

Ataskaita buvo paskelbta 3 valandos ir 33 minutes, ne 17:50 UTC
Vėjas 6 kt iš Rytų/Pietryčių
Temperatūra 11°C
Drėgmė 50%
Slėgis 1026 hPa
Matomumas 10 km arba daugiau
nėra debesų žemiau 1500 m ir nėra kamuolinių lietaus debesų

METAR: EDGS 201750Z 12006KT CAVOK 11/01 Q1026

Laikas: 23:23 (21:23 UTC)

Prognozė

Ataskaita buvo paskelbta 4 valandos ir 23 minutes, ne 17:00 UTC
Prognozė galioja nuo 20 metu 18 UTC su 21 metu 03 UTC
Vėjas 7 kt iš Rytų/Pietryčių
Matomumas 10 km arba daugiau
nėra debesų žemiau 1500 m ir nėra kamuolinių lietaus debesų

TAF: EDGS 201700Z 2018/2103 11007KT CAVOK

Orai ataskaitas ir orų prognozės (METAR, TAF).

turimą stotys yra geltonos ir raudonos taškus žemėlapyje.

Perkelti pele per norėdami pamatyti stoties vardą.

Tada spustelėkite, norėdami matyti oro stebėjimo ir prognozės.

Norėdami pakeisti žemėlapį: spustelėkite ant žalios mygtukų su juodo kryžiaus žemyn,; žalią mygtuką su brūkšneliu, jei norite nutolinti; arba žalių rodyklių gretimoms žemėlapius.


METAR-TAF: